sensor_id;sensor_type;location;lat;lon;timestamp;temperature;humidity
77865;DHT22;67061;48.524;9.040;2023-02-28T00:00:09;-2.40;70.90
77865;DHT22;67061;48.524;9.040;2023-02-28T00:02:37;-2.40;71.10
77865;DHT22;67061;48.524;9.040;2023-02-28T00:05:06;-2.40;71.50
77865;DHT22;67061;48.524;9.040;2023-02-28T00:07:34;-2.50;71.80
77865;DHT22;67061;48.524;9.040;2023-02-28T00:10:01;-2.50;71.50
77865;DHT22;67061;48.524;9.040;2023-02-28T00:12:30;-2.50;71.80
77865;DHT22;67061;48.524;9.040;2023-02-28T00:14:57;-2.50;72.00
77865;DHT22;67061;48.524;9.040;2023-02-28T00:17:24;-2.50;71.80
77865;DHT22;67061;48.524;9.040;2023-02-28T00:19:51;-2.50;72.10
77865;DHT22;67061;48.524;9.040;2023-02-28T00:22:20;-2.50;72.20
77865;DHT22;67061;48.524;9.040;2023-02-28T00:24:47;-2.50;72.40
77865;DHT22;67061;48.524;9.040;2023-02-28T00:27:15;-2.50;72.50
77865;DHT22;67061;48.524;9.040;2023-02-28T00:29:43;-2.50;72.50
77865;DHT22;67061;48.524;9.040;2023-02-28T00:32:10;-2.50;72.50
77865;DHT22;67061;48.524;9.040;2023-02-28T00:34:37;-2.60;72.90
77865;DHT22;67061;48.524;9.040;2023-02-28T00:37:04;-2.60;72.70
77865;DHT22;67061;48.524;9.040;2023-02-28T00:39:34;-2.60;72.80
77865;DHT22;67061;48.524;9.040;2023-02-28T00:42:01;-2.70;73.20
77865;DHT22;67061;48.524;9.040;2023-02-28T00:44:28;-2.70;73.50
77865;DHT22;67061;48.524;9.040;2023-02-28T00:46:57;-2.70;73.70
77865;DHT22;67061;48.524;9.040;2023-02-28T00:49:25;-2.70;73.90
77865;DHT22;67061;48.524;9.040;2023-02-28T00:51:53;-2.80;73.90
77865;DHT22;67061;48.524;9.040;2023-02-28T00:54:21;-2.80;73.90
77865;DHT22;67061;48.524;9.040;2023-02-28T00:56:48;-2.80;74.20
77865;DHT22;67061;48.524;9.040;2023-02-28T00:59:16;-2.80;73.90
77865;DHT22;67061;48.524;9.040;2023-02-28T01:01:45;-2.80;74.10
77865;DHT22;67061;48.524;9.040;2023-02-28T01:04:14;-2.80;74.50
77865;DHT22;67061;48.524;9.040;2023-02-28T01:06:42;-2.80;74.10
77865;DHT22;67061;48.524;9.040;2023-02-28T01:09:09;-2.80;74.40
77865;DHT22;67061;48.524;9.040;2023-02-28T01:11:37;-2.90;74.70
77865;DHT22;67061;48.524;9.040;2023-02-28T01:14:04;-2.90;74.60
77865;DHT22;67061;48.524;9.040;2023-02-28T01:16:31;-2.90;75.00
77865;DHT22;67061;48.524;9.040;2023-02-28T01:18:59;-2.90;75.20
77865;DHT22;67061;48.524;9.040;2023-02-28T01:21:27;-2.90;75.60
77865;DHT22;67061;48.524;9.040;2023-02-28T01:23:56;-2.90;75.50
77865;DHT22;67061;48.524;9.040;2023-02-28T01:26:24;-2.90;75.60
77865;DHT22;67061;48.524;9.040;2023-02-28T01:28:52;-3.00;75.60
77865;DHT22;67061;48.524;9.040;2023-02-28T01:31:20;-3.00;76.10
77865;DHT22;67061;48.524;9.040;2023-02-28T01:33:48;-3.00;76.30
77865;DHT22;67061;48.524;9.040;2023-02-28T01:36:16;-3.00;75.90
77865;DHT22;67061;48.524;9.040;2023-02-28T01:38:45;-3.10;76.20
77865;DHT22;67061;48.524;9.040;2023-02-28T01:41:16;-3.10;76.60
77865;DHT22;67061;48.524;9.040;2023-02-28T01:43:56;-3.10;76.20
77865;DHT22;67061;48.524;9.040;2023-02-28T01:46:23;-3.10;76.50
77865;DHT22;67061;48.524;9.040;2023-02-28T01:48:52;-3.10;76.90
77865;DHT22;67061;48.524;9.040;2023-02-28T01:51:24;-3.10;77.00
77865;DHT22;67061;48.524;9.040;2023-02-28T01:53:56;-3.10;76.90
77865;DHT22;67061;48.524;9.040;2023-02-28T01:56:27;-3.10;77.20
77865;DHT22;67061;48.524;9.040;2023-02-28T01:58:56;-3.10;77.30
77865;DHT22;67061;48.524;9.040;2023-02-28T02:01:25;-3.10;77.20
77865;DHT22;67061;48.524;9.040;2023-02-28T02:03:53;-3.10;77.80
77865;DHT22;67061;48.524;9.040;2023-02-28T02:06:22;-3.10;77.80
77865;DHT22;67061;48.524;9.040;2023-02-28T02:08:49;-3.10;78.10
77865;DHT22;67061;48.524;9.040;2023-02-28T02:11:20;-3.10;78.00
77865;DHT22;67061;48.524;9.040;2023-02-28T02:14:11;-3.10;78.10
77865;DHT22;67061;48.524;9.040;2023-02-28T02:16:50;-3.10;78.10
77865;DHT22;67061;48.524;9.040;2023-02-28T02:19:59;-3.00;78.00
77865;DHT22;67061;48.524;9.040;2023-02-28T02:25:26;-3.00;78.30
77865;DHT22;67061;48.524;9.040;2023-02-28T02:34:26;-3.10;78.50
77865;DHT22;67061;48.524;9.040;2023-02-28T02:37:00;-3.00;78.70
77865;DHT22;67061;48.524;9.040;2023-02-28T02:39:37;-3.00;79.00
77865;DHT22;67061;48.524;9.040;2023-02-28T02:42:13;-3.00;78.70
77865;DHT22;67061;48.524;9.040;2023-02-28T02:44:46;-3.10;78.80
77865;DHT22;67061;48.524;9.040;2023-02-28T02:47:18;-3.10;79.30
77865;DHT22;67061;48.524;9.040;2023-02-28T02:49:50;-3.20;79.40
77865;DHT22;67061;48.524;9.040;2023-02-28T02:52:22;-3.10;79.60
77865;DHT22;67061;48.524;9.040;2023-02-28T02:54:51;-3.10;79.60
77865;DHT22;67061;48.524;9.040;2023-02-28T02:57:25;-3.10;79.70
77865;DHT22;67061;48.524;9.040;2023-02-28T02:59:55;-3.20;79.70
77865;DHT22;67061;48.524;9.040;2023-02-28T03:02:23;-3.10;80.10
77865;DHT22;67061;48.524;9.040;2023-02-28T03:04:59;-3.10;79.80
77865;DHT22;67061;48.524;9.040;2023-02-28T03:07:26;-3.20;80.00
77865;DHT22;67061;48.524;9.040;2023-02-28T03:09:55;-3.10;80.30
77865;DHT22;67061;48.524;9.040;2023-02-28T03:12:39;-3.10;80.10
77865;DHT22;67061;48.524;9.040;2023-02-28T03:15:11;-3.10;80.10
77865;DHT22;67061;48.524;9.040;2023-02-28T03:17:57;-3.10;80.20
77865;DHT22;67061;48.524;9.040;2023-02-28T03:20:35;-3.00;80.20
77865;DHT22;67061;48.524;9.040;2023-02-28T03:23:12;-3.00;80.20
77865;DHT22;67061;48.524;9.040;2023-02-28T03:25:47;-2.90;80.30
77865;DHT22;67061;48.524;9.040;2023-02-28T03:28:17;-2.90;79.80
77865;DHT22;67061;48.524;9.040;2023-02-28T03:30:49;-2.80;80.20
77865;DHT22;67061;48.524;9.040;2023-02-28T03:33:21;-2.80;79.90
77865;DHT22;67061;48.524;9.040;2023-02-28T03:35:55;-2.90;80.00
77865;DHT22;67061;48.524;9.040;2023-02-28T03:38:28;-2.90;80.30
77865;DHT22;67061;48.524;9.040;2023-02-28T03:41:02;-2.90;80.20
77865;DHT22;67061;48.524;9.040;2023-02-28T03:43:39;-2.80;80.10
77865;DHT22;67061;48.524;9.040;2023-02-28T03:46:11;-2.80;80.70
77865;DHT22;67061;48.524;9.040;2023-02-28T03:48:42;-2.80;80.20
77865;DHT22;67061;48.524;9.040;2023-02-28T03:51:15;-2.70;80.00
77865;DHT22;67061;48.524;9.040;2023-02-28T03:53:46;-2.70;80.20
77865;DHT22;67061;48.524;9.040;2023-02-28T03:56:16;-2.70;80.20
77865;DHT22;67061;48.524;9.040;2023-02-28T03:58:48;-2.70;80.10
77865;DHT22;67061;48.524;9.040;2023-02-28T04:01:20;-2.70;80.30
77865;DHT22;67061;48.524;9.040;2023-02-28T04:03:49;-2.70;80.30
77865;DHT22;67061;48.524;9.040;2023-02-28T04:06:20;-2.70;80.80
77865;DHT22;67061;48.524;9.040;2023-02-28T04:08:50;-2.70;80.70
77865;DHT22;67061;48.524;9.040;2023-02-28T04:11:23;-2.70;80.70
77865;DHT22;67061;48.524;9.040;2023-02-28T04:13:51;-2.70;80.70
77865;DHT22;67061;48.524;9.040;2023-02-28T04:16:18;-2.70;81.20
77865;DHT22;67061;48.524;9.040;2023-02-28T04:18:45;-2.70;81.10
77865;DHT22;67061;48.524;9.040;2023-02-28T04:21:12;-2.70;81.10
77865;DHT22;67061;48.524;9.040;2023-02-28T04:23:41;-2.60;81.20
77865;DHT22;67061;48.524;9.040;2023-02-28T04:26:08;-2.60;81.00
77865;DHT22;67061;48.524;9.040;2023-02-28T04:28:37;-2.60;81.00
77865;DHT22;67061;48.524;9.040;2023-02-28T04:31:05;-2.60;81.10
77865;DHT22;67061;48.524;9.040;2023-02-28T04:33:32;-2.50;80.70
77865;DHT22;67061;48.524;9.040;2023-02-28T04:36:01;-2.50;80.80
77865;DHT22;67061;48.524;9.040;2023-02-28T04:38:28;-2.60;81.30
77865;DHT22;67061;48.524;9.040;2023-02-28T04:40:59;-2.60;81.60
77865;DHT22;67061;48.524;9.040;2023-02-28T04:43:26;-2.60;81.60
77865;DHT22;67061;48.524;9.040;2023-02-28T04:45:53;-2.70;81.80
77865;DHT22;67061;48.524;9.040;2023-02-28T04:48:22;-2.70;82.70
77865;DHT22;67061;48.524;9.040;2023-02-28T04:50:51;-2.60;82.10
77865;DHT22;67061;48.524;9.040;2023-02-28T04:53:18;-2.60;82.10
77865;DHT22;67061;48.524;9.040;2023-02-28T04:55:45;-2.70;82.70
77865;DHT22;67061;48.524;9.040;2023-02-28T04:58:14;-2.60;82.60
77865;DHT22;67061;48.524;9.040;2023-02-28T05:00:41;-2.60;82.80
77865;DHT22;67061;48.524;9.040;2023-02-28T05:03:08;-2.60;83.70
77865;DHT22;67061;48.524;9.040;2023-02-28T05:05:35;-2.60;83.60
77865;DHT22;67061;48.524;9.040;2023-02-28T05:08:03;-2.60;83.80
77865;DHT22;67061;48.524;9.040;2023-02-28T05:10:30;-2.60;83.60
77865;DHT22;67061;48.524;9.040;2023-02-28T05:12:58;-2.70;83.60
77865;DHT22;67061;48.524;9.040;2023-02-28T05:15:26;-2.70;84.60
77865;DHT22;67061;48.524;9.040;2023-02-28T05:17:53;-2.70;84.80
77865;DHT22;67061;48.524;9.040;2023-02-28T05:20:20;-2.70;84.60
77865;DHT22;67061;48.524;9.040;2023-02-28T05:22:47;-2.70;84.90
77865;DHT22;67061;48.524;9.040;2023-02-28T05:25:18;-2.60;85.40
77865;DHT22;67061;48.524;9.040;2023-02-28T05:27:45;-2.60;85.00
77865;DHT22;67061;48.524;9.040;2023-02-28T05:30:13;-2.60;84.90
77865;DHT22;67061;48.524;9.040;2023-02-28T05:32:41;-2.70;85.70
77865;DHT22;67061;48.524;9.040;2023-02-28T05:35:10;-2.60;85.90
77865;DHT22;67061;48.524;9.040;2023-02-28T05:37:37;-2.60;85.90
77865;DHT22;67061;48.524;9.040;2023-02-28T05:40:05;-2.60;85.70
77865;DHT22;67061;48.524;9.040;2023-02-28T05:42:35;-2.60;85.50
77865;DHT22;67061;48.524;9.040;2023-02-28T05:45:03;-2.70;86.10
77865;DHT22;67061;48.524;9.040;2023-02-28T05:47:30;-2.70;86.10
77865;DHT22;67061;48.524;9.040;2023-02-28T05:49:58;-2.70;86.80
77865;DHT22;67061;48.524;9.040;2023-02-28T05:52:26;-2.70;86.70
77865;DHT22;67061;48.524;9.040;2023-02-28T05:54:53;-2.70;86.60
77865;DHT22;67061;48.524;9.040;2023-02-28T05:57:20;-2.70;86.50
77865;DHT22;67061;48.524;9.040;2023-02-28T05:59:47;-2.70;86.50
77865;DHT22;67061;48.524;9.040;2023-02-28T06:02:15;-2.70;87.20
77865;DHT22;67061;48.524;9.040;2023-02-28T06:04:43;-2.70;86.40
77865;DHT22;67061;48.524;9.040;2023-02-28T06:07:11;-2.70;86.80
77865;DHT22;67061;48.524;9.040;2023-02-28T06:09:38;-2.70;86.10
77865;DHT22;67061;48.524;9.040;2023-02-28T06:12:07;-2.70;87.00
77865;DHT22;67061;48.524;9.040;2023-02-28T06:14:35;-2.60;86.80
77865;DHT22;67061;48.524;9.040;2023-02-28T06:17:03;-2.60;86.80
77865;DHT22;67061;48.524;9.040;2023-02-28T06:19:30;-2.60;86.80
77865;DHT22;67061;48.524;9.040;2023-02-28T06:21:57;-2.60;85.90
77865;DHT22;67061;48.524;9.040;2023-02-28T06:24:26;-2.60;85.90
77865;DHT22;67061;48.524;9.040;2023-02-28T06:26:54;-2.50;86.30
77865;DHT22;67061;48.524;9.040;2023-02-28T06:29:21;-2.50;85.70
77865;DHT22;67061;48.524;9.040;2023-02-28T06:31:48;-2.50;85.80
77865;DHT22;67061;48.524;9.040;2023-02-28T06:34:16;-2.50;85.40
77865;DHT22;67061;48.524;9.040;2023-02-28T06:36:43;-2.50;85.40
77865;DHT22;67061;48.524;9.040;2023-02-28T06:39:10;-2.50;85.00
77865;DHT22;67061;48.524;9.040;2023-02-28T06:41:38;-2.50;84.70
77865;DHT22;67061;48.524;9.040;2023-02-28T06:44:09;-2.40;84.70
77865;DHT22;67061;48.524;9.040;2023-02-28T06:46:39;-2.40;84.50
77865;DHT22;67061;48.524;9.040;2023-02-28T06:49:06;-2.40;84.00
77865;DHT22;67061;48.524;9.040;2023-02-28T06:51:35;-2.40;83.70
77865;DHT22;67061;48.524;9.040;2023-02-28T06:54:02;-2.30;84.00
77865;DHT22;67061;48.524;9.040;2023-02-28T06:56:29;-2.30;83.20
77865;DHT22;67061;48.524;9.040;2023-02-28T06:58:58;-2.30;83.10
77865;DHT22;67061;48.524;9.040;2023-02-28T07:01:25;-2.30;83.50
77865;DHT22;67061;48.524;9.040;2023-02-28T07:03:53;-2.30;82.90
77865;DHT22;67061;48.524;9.040;2023-02-28T07:06:21;-2.20;82.40
77865;DHT22;67061;48.524;9.040;2023-02-28T07:08:49;-2.20;82.50
77865;DHT22;67061;48.524;9.040;2023-02-28T07:11:16;-2.20;82.40
77865;DHT22;67061;48.524;9.040;2023-02-28T07:13:43;-2.20;82.30
77865;DHT22;67061;48.524;9.040;2023-02-28T07:16:11;-2.20;82.10
77865;DHT22;67061;48.524;9.040;2023-02-28T07:18:38;-2.10;82.00
77865;DHT22;67061;48.524;9.040;2023-02-28T07:21:07;-2.10;81.90
77865;DHT22;67061;48.524;9.040;2023-02-28T07:23:35;-2.10;81.50
77865;DHT22;67061;48.524;9.040;2023-02-28T07:26:03;-2.10;81.60
77865;DHT22;67061;48.524;9.040;2023-02-28T07:28:30;-2.00;81.10
77865;DHT22;67061;48.524;9.040;2023-02-28T07:31:03;-1.90;81.40
77865;DHT22;67061;48.524;9.040;2023-02-28T07:33:32;-1.90;81.20
77865;DHT22;67061;48.524;9.040;2023-02-28T07:36:02;-1.90;81.30
77865;DHT22;67061;48.524;9.040;2023-02-28T07:38:30;-1.90;80.90
77865;DHT22;67061;48.524;9.040;2023-02-28T07:40:57;-1.90;81.20
77865;DHT22;67061;48.524;9.040;2023-02-28T07:43:24;-1.90;81.10
77865;DHT22;67061;48.524;9.040;2023-02-28T07:45:51;-1.80;81.20
77865;DHT22;67061;48.524;9.040;2023-02-28T07:48:17;-1.80;80.80
77865;DHT22;67061;48.524;9.040;2023-02-28T07:50:54;-1.80;80.80
77865;DHT22;67061;48.524;9.040;2023-02-28T07:53:21;-1.80;80.70
77865;DHT22;67061;48.524;9.040;2023-02-28T07:55:48;-1.70;80.10
77865;DHT22;67061;48.524;9.040;2023-02-28T07:58:15;-1.70;80.40
77865;DHT22;67061;48.524;9.040;2023-02-28T08:00:42;-1.70;80.30
77865;DHT22;67061;48.524;9.040;2023-02-28T08:03:12;-1.70;80.10
77865;DHT22;67061;48.524;9.040;2023-02-28T08:05:39;-1.70;80.50
77865;DHT22;67061;48.524;9.040;2023-02-28T08:08:08;-1.70;80.40
77865;DHT22;67061;48.524;9.040;2023-02-28T08:10:36;-1.70;80.30
77865;DHT22;67061;48.524;9.040;2023-02-28T08:13:06;-1.70;80.10
77865;DHT22;67061;48.524;9.040;2023-02-28T08:15:33;-1.60;80.30
77865;DHT22;67061;48.524;9.040;2023-02-28T08:18:01;-1.60;80.10
77865;DHT22;67061;48.524;9.040;2023-02-28T08:20:28;-1.60;79.90
77865;DHT22;67061;48.524;9.040;2023-02-28T08:22:56;-1.60;80.20
77865;DHT22;67061;48.524;9.040;2023-02-28T08:25:24;-1.50;79.90
77865;DHT22;67061;48.524;9.040;2023-02-28T08:27:51;-1.50;80.00
77865;DHT22;67061;48.524;9.040;2023-02-28T08:30:18;-1.50;80.00
77865;DHT22;67061;48.524;9.040;2023-02-28T08:32:45;-1.50;80.00
77865;DHT22;67061;48.524;9.040;2023-02-28T08:35:12;-1.50;79.80
77865;DHT22;67061;48.524;9.040;2023-02-28T08:37:39;-1.40;79.60
77865;DHT22;67061;48.524;9.040;2023-02-28T08:40:08;-1.40;79.40
77865;DHT22;67061;48.524;9.040;2023-02-28T08:42:36;-1.30;79.40
77865;DHT22;67061;48.524;9.040;2023-02-28T08:45:04;-1.30;78.70
77865;DHT22;67061;48.524;9.040;2023-02-28T08:47:31;-1.30;78.70
77865;DHT22;67061;48.524;9.040;2023-02-28T08:49:58;-1.30;79.20
77865;DHT22;67061;48.524;9.040;2023-02-28T08:52:25;-1.20;78.50
77865;DHT22;67061;48.524;9.040;2023-02-28T08:54:52;-1.10;78.20
77865;DHT22;67061;48.524;9.040;2023-02-28T08:57:19;-1.10;77.80
77865;DHT22;67061;48.524;9.040;2023-02-28T08:59:47;-1.10;77.70
77865;DHT22;67061;48.524;9.040;2023-02-28T09:02:14;-1.10;77.20
77865;DHT22;67061;48.524;9.040;2023-02-28T09:04:41;-1.00;77.10
77865;DHT22;67061;48.524;9.040;2023-02-28T09:07:10;-1.10;76.40
77865;DHT22;67061;48.524;9.040;2023-02-28T09:09:38;-1.00;76.50
77865;DHT22;67061;48.524;9.040;2023-02-28T09:12:20;-0.90;76.20
77865;DHT22;67061;48.524;9.040;2023-02-28T09:14:48;-0.90;75.80
77865;DHT22;67061;48.524;9.040;2023-02-28T09:17:15;-0.90;75.90
77865;DHT22;67061;48.524;9.040;2023-02-28T09:19:42;-0.80;75.60
77865;DHT22;67061;48.524;9.040;2023-02-28T09:22:09;-0.70;75.20
77865;DHT22;67061;48.524;9.040;2023-02-28T09:24:36;-0.70;74.70
77865;DHT22;67061;48.524;9.040;2023-02-28T09:27:04;-0.60;74.60
77865;DHT22;67061;48.524;9.040;2023-02-28T09:29:32;-0.50;74.20
77865;DHT22;67061;48.524;9.040;2023-02-28T09:32:01;-0.50;74.60
77865;DHT22;67061;48.524;9.040;2023-02-28T09:34:28;-0.50;73.60
77865;DHT22;67061;48.524;9.040;2023-02-28T09:36:56;-0.50;74.20
77865;DHT22;67061;48.524;9.040;2023-02-28T09:39:23;-0.40;73.70
77865;DHT22;67061;48.524;9.040;2023-02-28T09:41:53;-0.30;73.60
77865;DHT22;67061;48.524;9.040;2023-02-28T09:44:24;-0.40;73.10
77865;DHT22;67061;48.524;9.040;2023-02-28T09:46:57;-0.40;73.10
77865;DHT22;67061;48.524;9.040;2023-02-28T09:49:37;-0.40;73.60
77865;DHT22;67061;48.524;9.040;2023-02-28T09:52:10;-0.20;73.80
77865;DHT22;67061;48.524;9.040;2023-02-28T09:54:37;-0.10;72.90
77865;DHT22;67061;48.524;9.040;2023-02-28T09:57:08;-0.10;72.50
77865;DHT22;67061;48.524;9.040;2023-02-28T09:59:41;0.00;72.10
77865;DHT22;67061;48.524;9.040;2023-02-28T10:02:38;0.00;71.60
77865;DHT22;67061;48.524;9.040;2023-02-28T10:05:12;0.00;72.10
77865;DHT22;67061;48.524;9.040;2023-02-28T10:07:50;-0.10;71.40
77865;DHT22;67061;48.524;9.040;2023-02-28T10:10:25;-0.10;72.10
77865;DHT22;67061;48.524;9.040;2023-02-28T10:12:57;-0.10;72.60
77865;DHT22;67061;48.524;9.040;2023-02-28T10:15:27;0.00;72.30
77865;DHT22;67061;48.524;9.040;2023-02-28T10:17:58;0.20;72.00
77865;DHT22;67061;48.524;9.040;2023-02-28T10:20:28;0.20;70.80
77865;DHT22;67061;48.524;9.040;2023-02-28T10:23:03;0.00;71.50
77865;DHT22;67061;48.524;9.040;2023-02-28T10:25:34;0.00;72.00
77865;DHT22;67061;48.524;9.040;2023-02-28T10:28:09;0.20;72.40
77865;DHT22;67061;48.524;9.040;2023-02-28T10:30:39;0.30;71.10
77865;DHT22;67061;48.524;9.040;2023-02-28T10:33:17;0.10;71.20
77865;DHT22;67061;48.524;9.040;2023-02-28T10:35:47;0.00;71.20
77865;DHT22;67061;48.524;9.040;2023-02-28T10:38:18;0.00;71.50
77865;DHT22;67061;48.524;9.040;2023-02-28T10:40:45;0.20;71.80
77865;DHT22;67061;48.524;9.040;2023-02-28T10:43:21;0.40;71.30
77865;DHT22;67061;48.524;9.040;2023-02-28T10:45:56;0.50;70.80
77865;DHT22;67061;48.524;9.040;2023-02-28T10:48:36;0.50;70.40
77865;DHT22;67061;48.524;9.040;2023-02-28T10:51:06;0.60;70.40
77865;DHT22;67061;48.524;9.040;2023-02-28T10:53:37;0.70;70.10
77865;DHT22;67061;48.524;9.040;2023-02-28T10:56:14;0.70;69.40
77865;DHT22;67061;48.524;9.040;2023-02-28T10:58:51;0.80;70.20
77865;DHT22;67061;48.524;9.040;2023-02-28T11:01:20;1.00;69.60
77865;DHT22;67061;48.524;9.040;2023-02-28T11:03:48;1.10;69.20
77865;DHT22;67061;48.524;9.040;2023-02-28T11:06:18;1.20;68.50
77865;DHT22;67061;48.524;9.040;2023-02-28T11:08:49;1.10;68.60
77865;DHT22;67061;48.524;9.040;2023-02-28T11:11:17;1.20;68.10
77865;DHT22;67061;48.524;9.040;2023-02-28T11:13:45;1.20;67.60
77865;DHT22;67061;48.524;9.040;2023-02-28T11:16:14;1.00;67.90
77865;DHT22;67061;48.524;9.040;2023-02-28T11:18:43;1.00;68.60
77865;DHT22;67061;48.524;9.040;2023-02-28T11:21:19;1.20;68.20
77865;DHT22;67061;48.524;9.040;2023-02-28T11:23:49;1.20;67.90
77865;DHT22;67061;48.524;9.040;2023-02-28T11:26:36;1.00;67.50
77865;DHT22;67061;48.524;9.040;2023-02-28T11:29:16;1.10;68.00
77865;DHT22;67061;48.524;9.040;2023-02-28T11:32:01;1.20;67.30
77865;DHT22;67061;48.524;9.040;2023-02-28T11:34:28;1.10;67.50
77865;DHT22;67061;48.524;9.040;2023-02-28T11:36:58;1.20;68.10
77865;DHT22;67061;48.524;9.040;2023-02-28T11:39:26;1.50;67.20
77865;DHT22;67061;48.524;9.040;2023-02-28T11:42:05;1.60;66.40
77865;DHT22;67061;48.524;9.040;2023-02-28T11:44:48;1.40;66.40
77865;DHT22;67061;48.524;9.040;2023-02-28T11:47:27;1.30;66.80
77865;DHT22;67061;48.524;9.040;2023-02-28T11:50:16;1.50;66.20
77865;DHT22;67061;48.524;9.040;2023-02-28T11:52:52;1.60;66.50
77865;DHT22;67061;48.524;9.040;2023-02-28T11:55:24;1.70;65.70
77865;DHT22;67061;48.524;9.040;2023-02-28T11:58:21;1.50;66.20
77865;DHT22;67061;48.524;9.040;2023-02-28T12:01:13;1.50;65.80
77865;DHT22;67061;48.524;9.040;2023-02-28T12:03:45;1.60;65.80
77865;DHT22;67061;48.524;9.040;2023-02-28T12:06:23;1.80;66.00
77865;DHT22;67061;48.524;9.040;2023-02-28T12:09:04;2.00;65.50
77865;DHT22;67061;48.524;9.040;2023-02-28T12:11:44;2.20;65.00
77865;DHT22;67061;48.524;9.040;2023-02-28T12:14:47;2.20;64.70
77865;DHT22;67061;48.524;9.040;2023-02-28T12:17:24;2.10;64.40
77865;DHT22;67061;48.524;9.040;2023-02-28T12:19:58;2.30;64.00
77865;DHT22;67061;48.524;9.040;2023-02-28T12:22:30;2.20;64.10
77865;DHT22;67061;48.524;9.040;2023-02-28T12:25:24;2.30;63.60
77865;DHT22;67061;48.524;9.040;2023-02-28T12:27:57;2.50;64.60
77865;DHT22;67061;48.524;9.040;2023-02-28T12:30:27;2.70;62.50
77865;DHT22;67061;48.524;9.040;2023-02-28T12:32:57;2.60;62.40
77865;DHT22;67061;48.524;9.040;2023-02-28T12:35:32;2.50;63.30
77865;DHT22;67061;48.524;9.040;2023-02-28T12:38:04;2.30;63.90
77865;DHT22;67061;48.524;9.040;2023-02-28T12:40:46;2.80;64.40
77865;DHT22;67061;48.524;9.040;2023-02-28T12:43:17;3.40;60.20
77865;DHT22;67061;48.524;9.040;2023-02-28T12:45:48;3.10;60.20
77865;DHT22;67061;48.524;9.040;2023-02-28T12:48:21;3.00;60.80
77865;DHT22;67061;48.524;9.040;2023-02-28T12:50:51;2.60;63.20
77865;DHT22;67061;48.524;9.040;2023-02-28T12:53:23;3.10;62.30
77865;DHT22;67061;48.524;9.040;2023-02-28T12:56:02;3.60;60.80
77865;DHT22;67061;48.524;9.040;2023-02-28T12:58:33;4.70;59.00
77865;DHT22;67061;48.524;9.040;2023-02-28T13:01:30;5.70;56.30
77865;DHT22;67061;48.524;9.040;2023-02-28T13:04:21;6.40;53.60
77865;DHT22;67061;48.524;9.040;2023-02-28T13:09:52;6.60;52.70
77865;DHT22;67061;48.524;9.040;2023-02-28T13:12:22;6.60;52.50
77865;DHT22;67061;48.524;9.040;2023-02-28T13:14:49;6.80;52.00
77865;DHT22;67061;48.524;9.040;2023-02-28T13:17:19;6.30;52.50
77865;DHT22;67061;48.524;9.040;2023-02-28T13:19:56;5.80;52.90
77865;DHT22;67061;48.524;9.040;2023-02-28T13:22:40;5.00;55.00
77865;DHT22;67061;48.524;9.040;2023-02-28T13:35:11;4.60;60.80
77865;DHT22;67061;48.524;9.040;2023-02-28T13:37:43;5.50;55.70
77865;DHT22;67061;48.524;9.040;2023-02-28T13:40:31;6.00;53.40
77865;DHT22;67061;48.524;9.040;2023-02-28T13:43:03;5.50;54.00
77865;DHT22;67061;48.524;9.040;2023-02-28T13:45:34;5.30;55.70
77865;DHT22;67061;48.524;9.040;2023-02-28T13:48:16;5.60;54.40
77865;DHT22;67061;48.524;9.040;2023-02-28T13:50:44;5.50;54.80
77865;DHT22;67061;48.524;9.040;2023-02-28T13:53:34;5.80;54.10
77865;DHT22;67061;48.524;9.040;2023-02-28T13:56:18;5.00;53.10
77865;DHT22;67061;48.524;9.040;2023-02-28T13:58:54;4.50;55.80
77865;DHT22;67061;48.524;9.040;2023-02-28T14:01:33;4.40;57.00
77865;DHT22;67061;48.524;9.040;2023-02-28T14:07:04;5.10;55.50
77865;DHT22;67061;48.524;9.040;2023-02-28T14:09:41;5.50;54.70
77865;DHT22;67061;48.524;9.040;2023-02-28T14:15:46;6.00;53.20
77865;DHT22;67061;48.524;9.040;2023-02-28T14:18:29;5.30;53.60
77865;DHT22;67061;48.524;9.040;2023-02-28T14:21:02;5.30;53.50
77865;DHT22;67061;48.524;9.040;2023-02-28T14:24:03;4.90;55.60
77865;DHT22;67061;48.524;9.040;2023-02-28T14:26:56;4.80;55.60
77865;DHT22;67061;48.524;9.040;2023-02-28T14:32:34;4.40;56.70
77865;DHT22;67061;48.524;9.040;2023-02-28T14:35:10;4.20;57.20
77865;DHT22;67061;48.524;9.040;2023-02-28T14:37:41;4.30;57.30
77865;DHT22;67061;48.524;9.040;2023-02-28T14:40:15;4.30;56.40
77865;DHT22;67061;48.524;9.040;2023-02-28T14:42:47;4.00;57.50
77865;DHT22;67061;48.524;9.040;2023-02-28T14:45:19;4.00;57.60
77865;DHT22;67061;48.524;9.040;2023-02-28T14:47:47;4.10;57.10
77865;DHT22;67061;48.524;9.040;2023-02-28T14:50:20;4.10;57.80
77865;DHT22;67061;48.524;9.040;2023-02-28T14:52:49;4.00;57.50
77865;DHT22;67061;48.524;9.040;2023-02-28T14:55:23;4.00;58.10
77865;DHT22;67061;48.524;9.040;2023-02-28T14:57:52;4.10;57.80
77865;DHT22;67061;48.524;9.040;2023-02-28T15:00:24;4.10;58.20
77865;DHT22;67061;48.524;9.040;2023-02-28T15:02:52;4.10;57.70
77865;DHT22;67061;48.524;9.040;2023-02-28T15:05:28;4.10;57.90
77865;DHT22;67061;48.524;9.040;2023-02-28T15:08:04;4.20;57.90
77865;DHT22;67061;48.524;9.040;2023-02-28T15:10:33;4.20;57.70
77865;DHT22;67061;48.524;9.040;2023-02-28T15:13:03;4.20;57.20
77865;DHT22;67061;48.524;9.040;2023-02-28T15:15:41;4.10;57.00
77865;DHT22;67061;48.524;9.040;2023-02-28T15:18:16;4.10;57.80
77865;DHT22;67061;48.524;9.040;2023-02-28T15:20:44;4.20;57.40
77865;DHT22;67061;48.524;9.040;2023-02-28T15:23:11;4.20;57.60
77865;DHT22;67061;48.524;9.040;2023-02-28T15:25:40;4.20;57.10
77865;DHT22;67061;48.524;9.040;2023-02-28T15:28:12;4.10;57.10
77865;DHT22;67061;48.524;9.040;2023-02-28T15:30:52;4.10;56.80
77865;DHT22;67061;48.524;9.040;2023-02-28T15:33:21;4.00;57.00
77865;DHT22;67061;48.524;9.040;2023-02-28T15:35:48;4.00;57.40
77865;DHT22;67061;48.524;9.040;2023-02-28T15:38:18;4.00;57.20
77865;DHT22;67061;48.524;9.040;2023-02-28T15:40:50;4.00;57.10
77865;DHT22;67061;48.524;9.040;2023-02-28T15:43:25;4.00;57.50
77865;DHT22;67061;48.524;9.040;2023-02-28T15:45:56;4.00;57.30
77865;DHT22;67061;48.524;9.040;2023-02-28T15:48:27;3.90;57.10
77865;DHT22;67061;48.524;9.040;2023-02-28T15:50:56;3.90;57.70
77865;DHT22;67061;48.524;9.040;2023-02-28T15:53:27;3.90;57.70
77865;DHT22;67061;48.524;9.040;2023-02-28T15:55:59;3.90;57.50
77865;DHT22;67061;48.524;9.040;2023-02-28T15:58:26;3.90;57.70
77865;DHT22;67061;48.524;9.040;2023-02-28T16:01:05;3.90;57.60
77865;DHT22;67061;48.524;9.040;2023-02-28T16:03:40;3.90;57.80
77865;DHT22;67061;48.524;9.040;2023-02-28T16:06:38;3.90;58.20
77865;DHT22;67061;48.524;9.040;2023-02-28T16:09:10;3.90;58.00
77865;DHT22;67061;48.524;9.040;2023-02-28T16:11:42;3.90;57.90
77865;DHT22;67061;48.524;9.040;2023-02-28T16:14:17;3.80;58.20
77865;DHT22;67061;48.524;9.040;2023-02-28T16:16:46;3.80;58.50
77865;DHT22;67061;48.524;9.040;2023-02-28T16:19:14;3.70;58.60
77865;DHT22;67061;48.524;9.040;2023-02-28T16:21:41;3.70;58.60
77865;DHT22;67061;48.524;9.040;2023-02-28T16:24:08;3.60;58.90
77865;DHT22;67061;48.524;9.040;2023-02-28T16:26:35;3.60;58.90
77865;DHT22;67061;48.524;9.040;2023-02-28T16:29:06;3.50;59.00
77865;DHT22;67061;48.524;9.040;2023-02-28T16:31:36;3.50;59.10
77865;DHT22;67061;48.524;9.040;2023-02-28T16:34:04;3.50;59.00